Time;durP1;ratioP1;P1;durP2;ratioP2;P2;SDS_P1;SDS_P2;PMS_P1;PMS_P2;Temp;Humidity;BMP_temperature;BMP_pressure;BME280_temperature;BME280_humidity;BME280_pressure;Samples;Min_cycle;Max_cycle;Signal;HPM_P1;HPM_P2
2021/12/14 00:01:50;;;;;;;;;;;;;;;2.06;96.23;99292.69;5004811;28;19921;-73
2021/12/14 00:04:17;;;;;;;;;;;;;;;2.03;96.24;99293.94;4994306;28;19914;-73
2021/12/14 00:06:43;;;;;;;;;;;;;;;2.02;96.26;99296.78;4995821;28;20000;-74
2021/12/14 00:09:11;;;;;;;;;;;;;;;2.00;96.44;99293.56;4991187;28;20134;-78
2021/12/14 00:16:58;;;;;;;;;;;;;;;1.91;96.29;99307.00;4987084;28;19917;-74
2021/12/14 00:19:25;;;;;;;;;;;;;;;1.90;96.39;99304.56;5001132;28;19924;-73
2021/12/14 00:21:53;;;;;;;;;;;;;;;1.89;96.13;99309.06;4993542;28;20012;-73
2021/12/14 00:24:19;;;;;;;;;;;;;;;1.91;96.76;99308.84;4993878;28;19924;-77
2021/12/14 00:26:49;;;;;;;;;;;;;;;1.89;96.61;99313.50;4994328;28;19924;-75
2021/12/14 00:29:34;;;;;;;;;;;;;;;1.86;96.03;99312.09;4989190;28;20355;-74
2021/12/14 00:32:01;;;;;;;;;;;;;;;1.83;96.13;99312.53;4993049;28;20329;-74
2021/12/14 00:34:43;;;;;;;;;;;;;;;1.81;95.75;99321.66;4995397;28;19917;-74
2021/12/14 00:37:10;;;;;;;;;;;;;;;1.80;96.31;99320.88;4992430;28;19940;-74
2021/12/14 00:39:36;;;;;;;;;;;;;;;1.78;95.50;99317.63;5005791;28;19917;-73
2021/12/14 00:42:02;;;;;;;;;;;;;;;1.80;96.02;99318.22;5015174;28;20347;-73
2021/12/14 00:44:27;;;;;;;;;;;;;;;1.80;96.31;99326.13;4999945;28;20377;-74
2021/12/14 00:46:53;;;;;;;;;;;;;;;1.82;95.56;99329.38;4997204;28;19980;-75
2021/12/14 00:49:18;;;;;;;;;;;;;;;1.82;95.22;99328.56;5002059;28;19925;-75
2021/12/14 00:51:44;;;;;;;;;;;;;;;1.77;94.69;99326.56;4978516;28;20297;-76
2021/12/14 00:54:12;;;;;;;;;;;;;;;1.73;95.38;99323.56;4978392;28;19924;-77
2021/12/14 00:56:38;;;;;;;;;;;;;;;1.74;95.26;99324.34;4991228;28;19925;-80
2021/12/14 00:59:04;;;;;;;;;;;;;;;1.72;95.39;99321.09;4993874;28;20000;-74
2021/12/14 01:01:32;;;;;;;;;;;;;;;1.70;95.70;99323.97;4978127;28;19925;-73
2021/12/14 01:03:59;;;;;;;;;;;;;;;1.70;95.04;99323.97;5008541;28;20056;-75
2021/12/14 01:06:26;;;;;;;;;;;;;;;1.66;95.54;99322.78;4981712;28;19917;-76
2021/12/14 01:08:52;;;;;;;;;;;;;;;1.60;95.00;99328.88;4976118;28;19914;-76
2021/12/14 01:11:23;;;;;;;;;;;;;;;1.57;95.57;99322.19;4975528;28;20021;-74
2021/12/14 01:13:59;;;;;;;;;;;;;;;1.58;96.03;99318.53;4984973;28;19936;-74
2021/12/14 01:16:47;;;;;;;;;;;;;;;1.58;95.77;99317.72;4978979;28;20274;-76
2021/12/14 01:19:18;;;;;;;;;;;;;;;1.58;96.18;99313.25;4976389;28;19918;-75
2021/12/14 01:22:47;;;;;;;;;;;;;;;1.52;95.66;99311.47;4977148;28;19961;-76
2021/12/14 01:27:17;;;;;;;;;;;;;;;1.47;96.40;99303.38;4983877;28;19991;-76
2021/12/14 01:29:44;;;;;;;;;;;;;;;1.46;96.44;99308.88;4975871;28;19914;-77
2021/12/14 01:32:10;;;;;;;;;;;;;;;1.47;96.41;99308.66;4983410;28;19925;-78
2021/12/14 01:34:37;;;;;;;;;;;;;;;1.49;96.31;99313.72;4975569;28;19925;-76
2021/12/14 01:37:09;;;;;;;;;;;;;;;1.50;96.71;99307.44;4985830;28;19917;-75
2021/12/14 01:42:11;;;;;;;;;;;;;;;1.50;96.56;99304.78;4975513;28;19925;-77
2021/12/14 01:44:42;;;;;;;;;;;;;;;1.53;96.57;99293.84;4986701;28;19968;-75
2021/12/14 01:47:13;;;;;;;;;;;;;;;1.52;96.78;99298.28;4984328;28;19918;-76
2021/12/14 01:49:38;;;;;;;;;;;;;;;1.52;96.11;99294.84;4985586;28;19929;-74
2021/12/14 01:52:06;;;;;;;;;;;;;;;1.52;96.67;99292.22;4986195;28;19917;-73
2021/12/14 01:54:34;;;;;;;;;;;;;;;1.52;96.35;99298.28;4993028;28;20373;-72
2021/12/14 01:57:01;;;;;;;;;;;;;;;1.52;96.21;99294.84;4994730;28;19918;-73
2021/12/14 01:59:34;;;;;;;;;;;;;;;1.49;96.03;99300.53;4994190;28;20017;-74
2021/12/14 02:04:55;;;;;;;;;;;;;;;1.42;96.54;99300.56;4978375;28;19914;-73
2021/12/14 02:07:22;;;;;;;;;;;;;;;1.40;96.91;99303.44;4992358;28;20009;-74
2021/12/14 02:09:53;;;;;;;;;;;;;;;1.39;96.54;99304.44;4977242;28;19975;-75
2021/12/14 02:12:20;;;;;;;;;;;;;;;1.39;96.94;99304.44;4994221;28;20012;-75
2021/12/14 02:14:46;;;;;;;;;;;;;;;1.41;97.08;99306.84;4978746;28;20312;-78
2021/12/14 02:17:13;;;;;;;;;;;;;;;1.41;96.97;99299.75;4977090;28;19917;-78
2021/12/14 02:19:39;;;;;;;;;;;;;;;1.40;97.02;99298.16;4976830;28;19918;-73
2021/12/14 02:22:06;;;;;;;;;;;;;;;1.40;96.72;99294.69;4976524;28;19924;-74
2021/12/14 02:24:32;;;;;;;;;;;;;;;1.39;96.95;99296.53;4994098;28;20293;-72
2021/12/14 02:26:57;;;;;;;;;;;;;;;1.37;96.88;99295.13;5003126;28;19917;-74
2021/12/14 02:29:33;;;;;;;;;;;;;;;1.37;96.90;99300.41;4993598;28;20451;-78
2021/12/14 02:32:07;;;;;;;;;;;;;;;1.32;96.56;99306.28;4976268;28;20606;-77
2021/12/14 02:34:40;;;;;;;;;;;;;;;1.33;97.44;99301.81;4994089;28;19925;-75
2021/12/14 02:37:05;;;;;;;;;;;;;;;1.33;96.73;99304.44;4978298;28;19975;-76
2021/12/14 02:42:07;;;;;;;;;;;;;;;1.33;97.29;99304.44;4993764;28;19922;-78
2021/12/14 02:44:32;;;;;;;;;;;;;;;1.33;97.42;99313.19;4976820;28;19922;-79
2021/12/14 02:47:00;;;;;;;;;;;;;;;1.35;97.68;99308.50;4995456;28;19939;-74
2021/12/14 02:49:27;;;;;;;;;;;;;;;1.36;97.12;99304.84;4995330;28;19913;-75
2021/12/14 02:51:54;;;;;;;;;;;;;;;1.34;96.94;99306.06;4992424;28;20305;-75
2021/12/14 02:54:23;;;;;;;;;;;;;;;1.35;96.78;99305.06;4975966;28;19921;-77
2021/12/14 02:56:50;;;;;;;;;;;;;;;1.32;97.32;99306.28;5005409;28;19921;-76
2021/12/14 02:59:22;;;;;;;;;;;;;;;1.30;96.83;99307.53;4993662;28;19993;-77
2021/12/14 03:01:48;;;;;;;;;;;;;;;1.25;96.85;99318.69;4993349;28;20377;-75
2021/12/14 03:04:14;;;;;;;;;;;;;;;1.22;97.55;99317.28;4976094;28;20029;-76
2021/12/14 03:06:46;;;;;;;;;;;;;;;1.22;97.50;99311.19;4975432;28;19918;-81
2021/12/14 03:09:36;;;;;;;;;;;;;;;1.24;97.97;99322.31;4975982;28;19914;-78
2021/12/14 03:12:04;;;;;;;;;;;;;;;1.26;97.51;99312.41;4976884;28;19953;-75
2021/12/14 03:14:29;;;;;;;;;;;;;;;1.28;97.37;99310.34;4975252;28;19918;-77
2021/12/14 03:16:55;;;;;;;;;;;;;;;1.27;97.52;99309.53;4978154;28;19922;-75
2021/12/14 03:19:20;;;;;;;;;;;;;;;1.25;97.34;99308.13;4975439;28;19914;-75
2021/12/14 03:21:46;;;;;;;;;;;;;;;1.25;97.44;99318.69;4992813;28;20000;-75
2021/12/14 03:24:16;;;;;;;;;;;;;;;1.24;97.30;99317.06;4991996;28;19914;-76
2021/12/14 03:26:43;;;;;;;;;;;;;;;1.19;97.45;99320.31;4993128;28;19914;-76
2021/12/14 03:29:10;;;;;;;;;;;;;;;1.16;98.26;99314.63;4975623;28;19922;-75
2021/12/14 03:31:37;;;;;;;;;;;;;;;1.15;98.04;99319.13;4982217;28;19917;-76
2021/12/14 03:34:08;;;;;;;;;;;;;;;1.15;98.17;99316.47;5004772;28;19926;-78
2021/12/14 03:36:36;;;;;;;;;;;;;;;1.13;97.81;99315.88;4975277;28;20356;-76
2021/12/14 03:39:11;;;;;;;;;;;;;;;1.11;98.63;99324.00;4975432;28;20282;-75
2021/12/14 03:41:47;;;;;;;;;;;;;;;1.11;98.44;99323.16;4975217;28;19921;-74
2021/12/14 03:44:15;;;;;;;;;;;;;;;1.10;98.52;99318.94;4976824;28;19925;-74
2021/12/14 03:46:46;;;;;;;;;;;;;;;1.10;98.42;99311.81;4974969;28;19917;-76
2021/12/14 03:49:11;;;;;;;;;;;;;;;1.11;97.99;99318.72;4975143;28;19914;-76
2021/12/14 03:51:38;;;;;;;;;;;;;;;1.11;98.56;99315.25;4992448;28;19914;-76
2021/12/14 03:54:03;;;;;;;;;;;;;;;1.11;98.37;99316.09;4975254;28;20000;-75
2021/12/14 03:56:28;;;;;;;;;;;;;;;1.09;97.91;99312.03;4974899;28;19914;-72
2021/12/14 03:58:54;;;;;;;;;;;;;;;1.07;98.15;99314.06;5002834;28;19975;-75
2021/12/14 04:01:22;;;;;;;;;;;;;;;1.07;98.10;99314.84;4994415;28;19956;-74
2021/12/14 04:03:49;;;;;;;;;;;;;;;1.06;98.42;99315.91;4994138;28;19913;-72
2021/12/14 04:06:15;;;;;;;;;;;;;;;1.06;98.50;99318.53;5011890;28;20385;-73
2021/12/14 04:08:41;;;;;;;;;;;;;;;1.06;98.65;99318.53;5011742;28;19953;-75
2021/12/14 04:11:08;;;;;;;;;;;;;;;1.08;98.80;99324.38;5008369;28;19953;-76
2021/12/14 04:13:35;;;;;;;;;;;;;;;1.08;98.60;99329.66;4991451;28;19924;-77
2021/12/14 04:16:01;;;;;;;;;;;;;;;1.08;98.41;99323.59;4992414;28;19913;-76
2021/12/14 04:18:27;;;;;;;;;;;;;;;1.09;98.33;99319.94;4974718;28;19921;-75
2021/12/14 04:20:55;;;;;;;;;;;;;;;1.09;98.58;99333.91;4974844;28;19947;-76
2021/12/14 04:23:24;;;;;;;;;;;;;;;1.10;98.40;99327.63;4974991;28;20384;-76
2021/12/14 04:25:51;;;;;;;;;;;;;;;1.12;98.52;99330.06;4975834;28;19914;-79
2021/12/14 04:28:18;;;;;;;;;;;;;;;1.14;98.37;99335.94;4994205;28;19921;-79
2021/12/14 04:30:44;;;;;;;;;;;;;;;1.15;98.67;99329.66;4986645;28;19929;-79
2021/12/14 04:33:12;;;;;;;;;;;;;;;1.16;97.94;99335.72;4975540;28;20381;-79
2021/12/14 04:35:39;;;;;;;;;;;;;;;1.15;98.15;99336.72;4974254;28;19918;-81
2021/12/14 04:38:12;;;;;;;;;;;;;;;1.18;98.69;99336.31;4974571;28;20001;-81
2021/12/14 04:54:06;;;;;;;;;;;;;;;1.19;97.54;99345.84;5010497;28;19964;-76
2021/12/14 04:56:37;;;;;;;;;;;;;;;1.19;97.94;99345.84;4990875;28;19913;-76
2021/12/14 04:59:14;;;;;;;;;;;;;;;1.15;97.28;99344.63;4990784;28;19967;-76
2021/12/14 05:01:43;;;;;;;;;;;;;;;1.14;98.15;99354.38;4993595;28;19919;-77
2021/12/14 05:04:11;;;;;;;;;;;;;;;1.10;97.83;99351.34;4993865;28;20424;-76
2021/12/14 05:06:53;;;;;;;;;;;;;;;1.10;98.17;99347.91;5011222;28;20312;-77
2021/12/14 05:09:37;;;;;;;;;;;;;;;1.09;98.17;99356.81;5011452;28;19925;-78
2021/12/14 05:12:09;;;;;;;;;;;;;;;1.07;98.21;99357.00;5001698;28;19940;-77
2021/12/14 05:14:35;;;;;;;;;;;;;;;1.08;98.08;99357.84;4976433;28;19914;-76
2021/12/14 05:17:02;;;;;;;;;;;;;;;1.07;98.11;99350.94;4978682;28;19917;-77
2021/12/14 05:19:30;;;;;;;;;;;;;;;1.08;98.56;99361.25;4974000;28;19913;-78
2021/12/14 05:22:00;;;;;;;;;;;;;;;1.09;98.35;99356.81;4980270;28;20004;-79
2021/12/14 05:24:27;;;;;;;;;;;;;;;1.10;98.04;99356.59;4993751;28;19914;-74
2021/12/14 05:26:57;;;;;;;;;;;;;;;1.09;98.00;99359.47;4992076;28;19937;-71
2021/12/14 05:29:23;;;;;;;;;;;;;;;1.10;97.99;99361.88;5000731;28;20008;-73
2021/12/14 05:31:49;;;;;;;;;;;;;;;1.12;98.43;99366.94;4988937;28;19922;-72
2021/12/14 05:34:15;;;;;;;;;;;;;;;1.11;98.25;99363.50;4995123;28;19913;-72
2021/12/14 05:36:42;;;;;;;;;;;;;;;1.11;97.85;99371.41;4995005;28;20381;-72
2021/12/14 05:44:32;;;;;;;;;;;;;;;1.11;98.45;99378.47;4994739;28;19914;-72
2021/12/14 05:47:00;;;;;;;;;;;;;;;1.10;98.14;99377.69;4994689;28;20464;-73
2021/12/14 05:49:27;;;;;;;;;;;;;;;1.10;98.01;99388.22;4994760;28;20004;-72
2021/12/14 05:51:53;;;;;;;;;;;;;;;1.13;98.64;99388.84;4994540;28;19914;-72
2021/12/14 05:54:23;;;;;;;;;;;;;;;1.11;97.98;99379.31;4994468;28;19917;-72
2021/12/14 05:56:49;;;;;;;;;;;;;;;1.11;97.99;99378.47;4994463;28;19924;-72
2021/12/14 05:59:19;;;;;;;;;;;;;;;1.10;98.66;99379.53;4994845;28;19914;-74
2021/12/14 06:01:45;;;;;;;;;;;;;;;1.11;98.33;99381.09;4994251;28;20301;-73
2021/12/14 06:04:10;;;;;;;;;;;;;;;1.10;98.66;99384.78;4994252;28;19914;-73
2021/12/14 06:06:39;;;;;;;;;;;;;;;1.10;98.65;99382.94;4976536;28;19918;-73
2021/12/14 06:09:15;;;;;;;;;;;;;;;1.08;98.36;99381.53;4994488;28;19913;-73
2021/12/14 06:11:42;;;;;;;;;;;;;;;1.09;98.58;99389.22;4994307;28;19920;-73
2021/12/14 06:14:12;;;;;;;;;;;;;;;1.11;98.85;99392.47;4994102;28;20374;-73
2021/12/14 06:16:37;;;;;;;;;;;;;;;1.14;98.31;99391.25;4976595;28;19914;-73
2021/12/14 06:19:17;;;;;;;;;;;;;;;1.11;98.26;99389.00;4976805;28;19914;-73
2021/12/14 06:21:42;;;;;;;;;;;;;;;1.12;98.30;99390.63;4993983;28;19913;-73
2021/12/14 06:24:09;;;;;;;;;;;;;;;1.12;98.63;99382.72;4993738;28;19941;-73
2021/12/14 06:26:35;;;;;;;;;;;;;;;1.12;98.61;99388.00;4992989;28;20383;-73
2021/12/14 06:29:11;;;;;;;;;;;;;;;1.08;98.08;99392.88;4993578;28;19913;-73
2021/12/14 06:31:37;;;;;;;;;;;;;;;1.10;98.58;99398.75;4992949;28;20408;-73
2021/12/14 06:34:21;;;;;;;;;;;;;;;1.12;98.81;99390.63;4975920;28;20285;-73
2021/12/14 06:36:51;;;;;;;;;;;;;;;1.12;98.43;99395.91;4992793;28;19917;-73
2021/12/14 06:39:17;;;;;;;;;;;;;;;1.11;98.35;99383.75;4993267;28;20300;-73
2021/12/14 06:41:42;;;;;;;;;;;;;;;1.07;98.50;99385.97;4993006;28;19917;-73
2021/12/14 06:44:07;;;;;;;;;;;;;;;1.16;98.66;99398.94;4993404;28;19925;-73
2021/12/14 06:46:34;;;;;;;;;;;;;;;1.15;98.77;99402.59;4992594;28;19965;-73
2021/12/14 06:49:02;;;;;;;;;;;;;;;1.16;98.39;99391.88;4991976;28;19920;-73
2021/12/14 06:51:30;;;;;;;;;;;;;;;1.18;98.30;99404.81;4992832;28;19914;-72
2021/12/14 06:53:58;;;;;;;;;;;;;;;1.16;98.29;99399.78;4993116;28;19914;-72
2021/12/14 06:56:25;;;;;;;;;;;;;;;1.15;98.20;99402.59;4993004;28;19914;-72
2021/12/14 06:58:59;;;;;;;;;;;;;;;1.14;99.01;99399.16;4991416;28;20278;-72
2021/12/14 07:01:26;;;;;;;;;;;;;;;1.15;98.66;99398.16;4992955;28;20368;-72
2021/12/14 07:03:54;;;;;;;;;;;;;;;1.13;98.28;99404.63;4975607;28;19914;-72
2021/12/14 07:06:22;;;;;;;;;;;;;;;1.10;98.45;99406.66;4992762;28;20294;-72
2021/12/14 07:08:47;;;;;;;;;;;;;;;1.09;98.90;99401.59;4993146;28;19913;-72
2021/12/14 07:11:23;;;;;;;;;;;;;;;1.09;98.94;99406.88;4975852;28;20004;-73
2021/12/14 07:13:49;;;;;;;;;;;;;;;1.11;99.01;99410.91;4975554;28;19917;-72
2021/12/14 07:16:29;;;;;;;;;;;;;;;1.11;99.12;99410.09;4992937;28;19920;-72
2021/12/14 07:18:56;;;;;;;;;;;;;;;1.11;99.40;99405.66;4993029;28;19913;-72
2021/12/14 07:21:36;;;;;;;;;;;;;;;1.13;99.29;99407.28;4993120;28;19960;-72
2021/12/14 07:24:27;;;;;;;;;;;;;;;1.16;99.40;99414.75;4993135;28;19972;-72
2021/12/14 07:27:11;;;;;;;;;;;;;;;1.17;98.94;99411.09;4989366;28;19917;-72
2021/12/14 07:29:36;;;;;;;;;;;;;;;1.15;98.96;99405.22;4992833;28;19913;-72
2021/12/14 07:32:02;;;;;;;;;;;;;;;1.15;98.86;99419.22;4992972;28;19921;-73
2021/12/14 07:34:27;;;;;;;;;;;;;;;1.18;99.38;99418.78;4992839;28;19964;-72
2021/12/14 07:36:53;;;;;;;;;;;;;;;1.17;98.71;99417.16;4992656;28;19997;-72
2021/12/14 07:39:18;;;;;;;;;;;;;;;1.17;99.03;99422.44;4992909;28;20012;-72
2021/12/14 07:41:49;;;;;;;;;;;;;;;1.16;98.63;99420.00;4992953;28;20289;-73
2021/12/14 07:44:16;;;;;;;;;;;;;;;1.16;99.13;99417.38;4991493;28;19920;-72
2021/12/14 07:46:43;;;;;;;;;;;;;;;1.14;99.15;99429.97;4992365;28;19914;-72
2021/12/14 07:49:17;;;;;;;;;;;;;;;1.14;99.10;99425.50;4974316;28;19925;-72
2021/12/14 07:51:43;;;;;;;;;;;;;;;1.15;99.64;99426.28;4992740;28;19914;-72
2021/12/14 07:54:17;;;;;;;;;;;;;;;1.15;98.89;99435.03;4992870;28;20377;-72
2021/12/14 07:56:50;;;;;;;;;;;;;;;1.16;99.13;99431.38;4992315;28;19960;-71
2021/12/14 07:59:27;;;;;;;;;;;;;;;1.16;99.08;99436.66;4992539;28;19992;-72
2021/12/14 08:02:10;;;;;;;;;;;;;;;1.17;99.24;99440.88;4974782;28;20278;-72
2021/12/14 08:04:37;;;;;;;;;;;;;;;1.19;99.47;99440.69;4974717;28;19920;-71
2021/12/14 08:07:03;;;;;;;;;;;;;;;1.19;99.43;99443.34;4971496;28;19960;-71
2021/12/14 08:09:45;;;;;;;;;;;;;;;1.21;99.21;99455.28;4972694;28;19933;-72
2021/12/14 08:12:10;;;;;;;;;;;;;;;1.24;99.25;99448.78;4971384;28;19922;-72
2021/12/14 08:14:36;;;;;;;;;;;;;;;1.25;99.52;99456.47;4972444;28;19914;-72
2021/12/14 08:17:09;;;;;;;;;;;;;;;1.27;99.33;99456.31;4973166;28;20305;-72
2021/12/14 08:19:38;;;;;;;;;;;;;;;1.28;99.04;99463.16;4971312;28;20016;-72
2021/12/14 08:22:06;;;;;;;;;;;;;;;1.28;98.85;99456.09;4971490;28;19921;-72
2021/12/14 08:24:32;;;;;;;;;;;;;;;1.30;98.45;99466.41;4971695;28;20293;-72
2021/12/14 08:26:59;;;;;;;;;;;;;;;1.30;98.50;99455.88;4972574;28;20005;-72
2021/12/14 08:29:26;;;;;;;;;;;;;;;1.30;98.34;99469.06;4972789;28;20373;-72
2021/12/14 08:32:03;;;;;;;;;;;;;;;1.30;98.14;99463.78;4972468;28;19914;-73
2021/12/14 08:34:31;;;;;;;;;;;;;;;1.31;98.37;99457.50;4973035;28;19922;-72
2021/12/14 08:37:02;;;;;;;;;;;;;;;1.33;98.56;99458.13;4972887;28;19961;-72
2021/12/14 08:39:29;;;;;;;;;;;;;;;1.35;98.54;99453.44;4972643;28;19914;-73
2021/12/14 08:42:18;;;;;;;;;;;;;;;1.36;98.40;99448.97;4971113;28;19914;-72
2021/12/14 08:44:51;;;;;;;;;;;;;;;1.36;98.32;99446.34;4972122;28;19918;-72
2021/12/14 08:47:21;;;;;;;;;;;;;;;1.35;98.52;99442.88;4971153;28;19914;-72
2021/12/14 08:49:46;;;;;;;;;;;;;;;1.36;98.42;99448.97;4972332;28;19921;-73
2021/12/14 08:52:11;;;;;;;;;;;;;;;1.35;98.18;99445.53;4971290;28;19914;-73
2021/12/14 08:54:38;;;;;;;;;;;;;;;1.37;98.18;99440.06;4971128;28;19973;-72
2021/12/14 08:57:04;;;;;;;;;;;;;;;1.35;98.52;99431.56;4972418;28;20012;-73
2021/12/14 08:59:30;;;;;;;;;;;;;;;1.36;98.60;99428.69;4972972;28;19917;-72
2021/12/14 09:01:57;;;;;;;;;;;;;;;1.35;98.15;99423.66;4991017;28;19983;-72
2021/12/14 09:04:31;;;;;;;;;;;;;;;1.35;98.89;99432.34;4976276;28;20572;-72
2021/12/14 09:06:59;;;;;;;;;;;;;;;1.35;99.00;99419.16;4974264;28;19918;-72
2021/12/14 09:09:24;;;;;;;;;;;;;;;1.37;98.78;99424.25;4975790;28;19961;-73
2021/12/14 09:11:54;;;;;;;;;;;;;;;1.40;98.64;99416.75;4975903;28;20401;-72
2021/12/14 09:14:19;;;;;;;;;;;;;;;1.42;98.65;99421.81;4974723;28;19914;-72
2021/12/14 09:16:47;;;;;;;;;;;;;;;1.42;98.61;99413.91;4975584;28;19964;-72
2021/12/14 09:19:21;;;;;;;;;;;;;;;1.44;98.68;99417.13;4976012;28;20004;-73
2021/12/14 09:21:47;;;;;;;;;;;;;;;1.44;98.31;99420.56;4975742;28;20278;-73
2021/12/14 09:24:15;;;;;;;;;;;;;;;1.47;98.38;99411.44;4974568;28;19936;-73
2021/12/14 09:26:42;;;;;;;;;;;;;;;1.51;98.65;99412.63;4974369;28;20354;-72
2021/12/14 09:29:12;;;;;;;;;;;;;;;1.52;98.15;99414.25;4975843;28;19914;-72
2021/12/14 09:31:39;;;;;;;;;;;;;;;1.54;98.31;99408.81;4975730;28;19918;-72
2021/12/14 09:34:05;;;;;;;;;;;;;;;1.53;98.37;99405.34;4975702;28;20009;-72
2021/12/14 09:36:31;;;;;;;;;;;;;;;1.52;97.95;99397.66;4975353;28;20396;-72
2021/12/14 09:38:59;;;;;;;;;;;;;;;1.51;97.61;99399.47;4975164;28;19914;-71
2021/12/14 09:41:28;;;;;;;;;;;;;;;1.49;97.61;99401.50;4975627;28;19914;-72
2021/12/14 09:43:54;;;;;;;;;;;;;;;1.46;97.98;99394.00;4975347;28;19920;-72
2021/12/14 09:46:20;;;;;;;;;;;;;;;1.43;97.50;99387.34;4975569;28;19918;-72
2021/12/14 09:48:53;;;;;;;;;;;;;;;1.42;97.74;99384.91;4973964;28;19914;-72
2021/12/14 09:51:22;;;;;;;;;;;;;;;1.42;98.18;99384.91;4975448;28;19918;-72
2021/12/14 09:53:49;;;;;;;;;;;;;;;1.43;97.80;99376.78;4975183;28;19914;-72
2021/12/14 09:56:15;;;;;;;;;;;;;;;1.46;98.22;99387.94;4974062;28;19914;-72
2021/12/14 09:58:43;;;;;;;;;;;;;;;1.45;97.63;99376.56;4975522;28;19946;-72
2021/12/14 10:01:11;;;;;;;;;;;;;;;1.44;98.26;99375.78;4975263;28;19918;-73
2021/12/14 10:03:37;;;;;;;;;;;;;;;1.46;98.10;99369.50;4974898;28;20060;-72
2021/12/14 10:06:05;;;;;;;;;;;;;;;1.47;97.96;99373.75;4973358;28;19972;-72
2021/12/14 10:08:33;;;;;;;;;;;;;;;1.46;97.75;99366.84;4974926;28;19921;-73
2021/12/14 10:11:07;;;;;;;;;;;;;;;1.47;97.83;99369.28;4974155;28;19918;-72
2021/12/14 10:13:37;;;;;;;;;;;;;;;1.46;97.71;99372.91;4974931;28;20063;-72
2021/12/14 10:16:04;;;;;;;;;;;;;;;1.47;98.39;99361.38;4975119;28;19937;-72
2021/12/14 10:18:31;;;;;;;;;;;;;;;1.48;98.11;99376.16;4974569;28;19941;-73
2021/12/14 10:21:01;;;;;;;;;;;;;;;1.53;98.49;99375.56;4974699;28;19914;-73
2021/12/14 10:23:26;;;;;;;;;;;;;;;1.55;98.48;99378.78;4973606;28;19973;-73
2021/12/14 10:25:53;;;;;;;;;;;;;;;1.58;98.57;99373.09;4974592;28;19918;-73
2021/12/14 10:28:19;;;;;;;;;;;;;;;1.58;98.87;99370.47;4974460;28;19918;-73
2021/12/14 10:30:54;;;;;;;;;;;;;;;1.62;99.00;99379.56;4974535;28;20017;-73
2021/12/14 10:33:19;;;;;;;;;;;;;;;1.67;98.08;99376.28;4973337;28;19925;-72
2021/12/14 10:35:48;;;;;;;;;;;;;;;1.70;98.64;99367.97;4974400;28;19914;-72
2021/12/14 10:38:30;;;;;;;;;;;;;;;1.73;97.72;99376.28;4974843;28;19980;-72
2021/12/14 10:43:46;;;;;;;;;;;;;;;1.71;97.45;99385.41;4974340;28;19921;-72
2021/12/14 10:46:16;;;;;;;;;;;;;;;1.69;97.76;99375.06;4974233;28;20338;-72
2021/12/14 10:48:43;;;;;;;;;;;;;;;1.72;98.21;99376.47;4974068;28;19983;-72
2021/12/14 10:51:10;;;;;;;;;;;;;;;1.73;97.65;99373.66;4973074;28;19918;-73
2021/12/14 10:53:36;;;;;;;;;;;;;;;1.70;97.23;99366.16;4973018;28;19943;-73
2021/12/14 10:56:09;;;;;;;;;;;;;;;1.71;97.01;99366.94;4974272;28;19914;-72
2021/12/14 10:58:35;;;;;;;;;;;;;;;1.70;97.47;99360.88;4972787;28;19946;-72
2021/12/14 11:01:09;;;;;;;;;;;;;;;1.69;97.21;99363.72;4973954;28;19921;-72
2021/12/14 11:03:37;;;;;;;;;;;;;;;1.67;97.75;99361.31;4973785;28;19980;-72
2021/12/14 11:06:08;;;;;;;;;;;;;;;1.67;97.81;99368.38;4981062;28;19917;-72
2021/12/14 11:10:59;;;;;;;;;;;;;;;1.59;97.89;99356.25;4993159;28;19913;-72
2021/12/14 11:13:24;;;;;;;;;;;;;;;1.56;98.02;99367.22;4993083;28;19973;-72
2021/12/14 11:15:52;;;;;;;;;;;;;;;1.53;98.74;99371.06;4991606;28;20278;-72
2021/12/14 11:18:20;;;;;;;;;;;;;;;1.54;98.53;99374.53;4993209;28;19914;-72
2021/12/14 11:20:54;;;;;;;;;;;;;;;1.52;98.82;99366.81;4992911;28;19914;-71
2021/12/14 11:23:25;;;;;;;;;;;;;;;1.55;98.88;99362.94;4992767;28;19918;-73
2021/12/14 11:25:59;;;;;;;;;;;;;;;1.53;98.77;99355.25;4992462;28;20348;-73
2021/12/14 11:28:31;;;;;;;;;;;;;;;1.54;98.92;99362.16;4992843;28;19914;-72
2021/12/14 11:31:02;;;;;;;;;;;;;;;1.54;99.39;99358.72;4992796;28;20407;-73
2021/12/14 11:33:36;;;;;;;;;;;;;;;1.56;99.28;99365.41;4993092;28;19914;-73
2021/12/14 11:36:07;;;;;;;;;;;;;;;1.56;98.83;99362.75;4975201;28;20012;-72
2021/12/14 11:38:38;;;;;;;;;;;;;;;1.55;99.29;99361.13;4992890;28;19982;-73
2021/12/14 11:41:23;;;;;;;;;;;;;;;1.56;98.93;99364.56;4975142;28;19922;-73
2021/12/14 11:43:51;;;;;;;;;;;;;;;1.58;99.42;99371.25;4992292;28;20399;-73
2021/12/14 11:46:16;;;;;;;;;;;;;;;1.55;98.55;99362.94;4992235;28;19921;-74
2021/12/14 11:48:41;;;;;;;;;;;;;;;1.58;99.06;99363.34;4975261;28;19914;-74
2021/12/14 11:51:07;;;;;;;;;;;;;;;1.62;99.16;99363.75;4974922;28;19917;-74
2021/12/14 11:53:33;;;;;;;;;;;;;;;1.63;98.96;99357.44;4992337;28;19960;-73
2021/12/14 11:55:59;;;;;;;;;;;;;;;1.65;98.78;99355.44;4992084;28;19924;-72
2021/12/14 11:58:30;;;;;;;;;;;;;;;1.67;98.51;99356.03;4992567;28;19921;-72
2021/12/14 12:01:24;;;;;;;;;;;;;;;1.68;98.79;99356.81;4992233;28;20004;-72
2021/12/14 12:04:11;;;;;;;;;;;;;;;1.67;98.55;99350.75;4962214;28;19914;-72
2021/12/14 12:11:53;;;;;;;;;;;;;;;1.68;98.89;99348.91;4991910;28;20013;-72
2021/12/14 12:14:20;;;;;;;;;;;;;;;1.66;98.31;99348.31;4991685;28;19945;-72
2021/12/14 12:16:46;;;;;;;;;;;;;;;1.61;98.53;99351.56;4992106;28;20365;-74
2021/12/14 12:19:14;;;;;;;;;;;;;;;1.59;98.37;99349.16;4991395;28;19914;-72
2021/12/14 12:21:41;;;;;;;;;;;;;;;1.58;99.02;99339.63;4974091;28;19914;-72
2021/12/14 12:24:26;;;;;;;;;;;;;;;1.58;98.80;99336.97;4991368;28;20004;-72
2021/12/14 12:26:51;;;;;;;;;;;;;;;1.59;98.99;99343.09;4991283;28;19972;-72
2021/12/14 12:29:25;;;;;;;;;;;;;;;1.59;99.18;99340.44;4990292;28;19917;-71
2021/12/14 12:31:58;;;;;;;;;;;;;;;1.59;98.76;99343.88;4991026;28;19913;-71
2021/12/14 12:34:32;;;;;;;;;;;;;;;1.60;98.86;99339.44;4993384;28;19918;-72
2021/12/14 12:36:58;;;;;;;;;;;;;;;1.58;98.90;99344.88;4980657;28;19994;-72
2021/12/14 12:39:27;;;;;;;;;;;;;;;1.56;98.94;99338.22;4998897;28;19913;-73
2021/12/14 12:41:58;;;;;;;;;;;;;;;1.56;99.28;99336.41;4998616;28;19914;-73
2021/12/14 12:44:33;;;;;;;;;;;;;;;1.56;98.92;99338.22;4998498;28;19937;-72
2021/12/14 12:46:58;;;;;;;;;;;;;;;1.56;99.36;99333.75;4998197;28;19914;-72
2021/12/14 12:49:24;;;;;;;;;;;;;;;1.54;99.37;99337.63;4998496;28;19920;-72
2021/12/14 12:52:05;;;;;;;;;;;;;;;1.55;99.70;99339.22;4998467;28;19921;-72
2021/12/14 12:54:31;;;;;;;;;;;;;;;1.57;99.95;99342.47;4998734;28;19977;-71
2021/12/14 12:57:11;;;;;;;;;;;;;;;1.58;99.69;99349.38;4998109;28;19963;-72
2021/12/14 12:59:45;;;;;;;;;;;;;;;1.61;99.63;99341.03;4998759;28;19920;-72
2021/12/14 13:02:17;;;;;;;;;;;;;;;1.64;100.00;99348.53;4996874;28;19913;-72
2021/12/14 13:04:44;;;;;;;;;;;;;;;1.68;100.00;99349.72;4980904;28;20008;-72
2021/12/14 13:07:09;;;;;;;;;;;;;;;1.70;99.60;99349.53;4997638;28;20068;-71
2021/12/14 13:10:07;;;;;;;;;;;;;;;1.71;100.00;99354.59;4998310;28;20000;-71
2021/12/14 13:12:44;;;;;;;;;;;;;;;1.69;99.88;99351.34;4965110;28;19918;-72
2021/12/14 13:15:28;;;;;;;;;;;;;;;1.70;99.88;99349.53;4980606;28;20365;-72
2021/12/14 13:18:12;;;;;;;;;;;;;;;1.69;99.72;99345.28;4997820;28;19950;-72
2021/12/14 13:20:37;;;;;;;;;;;;;;;1.70;100.00;99350.31;4998495;28;19914;-71
2021/12/14 13:23:02;;;;;;;;;;;;;;;1.72;99.89;99347.47;4980194;28;19920;-74
2021/12/14 13:25:36;;;;;;;;;;;;;;;1.75;99.92;99347.06;4997890;28;19921;-71
2021/12/14 13:28:01;;;;;;;;;;;;;;;1.77;99.63;99350.31;4997843;28;20012;-74
2021/12/14 13:30:28;;;;;;;;;;;;;;;1.82;99.85;99354.94;4998173;28;20008;-73
2021/12/14 13:32:54;;;;;;;;;;;;;;;1.83;99.74;99357.38;4998177;28;19917;-74
2021/12/14 13:35:22;;;;;;;;;;;;;;;1.84;99.93;99348.41;4996503;28;19913;-72
2021/12/14 13:37:59;;;;;;;;;;;;;;;1.86;100.00;99361.41;4998014;28;19949;-72
2021/12/14 13:40:30;;;;;;;;;;;;;;;1.88;100.00;99356.72;4980240;28;20000;-72
2021/12/14 13:43:11;;;;;;;;;;;;;;;1.88;99.52;99360.19;4998055;28;19914;-71
2021/12/14 13:45:41;;;;;;;;;;;;;;;1.89;99.66;99364.44;4979801;28;19914;-72
2021/12/14 13:48:08;;;;;;;;;;;;;;;1.89;99.80;99359.16;4994347;28;20385;-72
2021/12/14 13:50:42;;;;;;;;;;;;;;;1.92;100.00;99358.72;4977429;28;19914;-73
2021/12/14 13:53:08;;;;;;;;;;;;;;;1.95;99.69;99367.25;4994492;28;19953;-74
2021/12/14 13:55:33;;;;;;;;;;;;;;;1.96;100.00;99359.13;4994660;28;20000;-74